createdAt,value
2023-01-09T08:32:53.689Z,97610.13
2023-01-09T08:48:04.793Z,97603.94
2023-01-09T08:50:32.135Z,97606.91
2023-01-09T08:52:59.633Z,97617.56
2023-01-09T08:55:27.190Z,97617.88
2023-01-09T08:57:55.842Z,97615.81
2023-01-09T09:00:25.285Z,97618.28
2023-01-09T09:03:00.063Z,97614.34
2023-01-09T09:05:31.799Z,97610.88
2023-01-09T09:08:00.200Z,97617.47
2023-01-09T09:10:30.622Z,97613.91
2023-01-09T09:12:59.980Z,97604.66
2023-01-09T09:15:28.730Z,97598.13
2023-01-09T09:18:01.762Z,97608.56
2023-01-09T09:20:38.051Z,97607.63
2023-01-09T09:23:08.237Z,97610.91
2023-01-09T09:25:38.284Z,97599.38
2023-01-09T09:28:07.185Z,97599.59
2023-01-09T09:30:35.455Z,97601.88
2023-01-09T09:33:06.337Z,97606.34
2023-01-09T09:35:35.304Z,97608.47
2023-01-09T09:38:05.735Z,97600.13
2023-01-09T09:41:29.613Z,97609.63
2023-01-09T09:44:48.406Z,97613.22
2023-01-09T09:48:29.418Z,97606.22
2023-01-09T09:51:23.751Z,97608.78
2023-01-09T09:54:04.669Z,97620.94
2023-01-09T09:56:56.614Z,97605.00
2023-01-09T09:59:34.472Z,97611.00
2023-01-09T10:02:30.780Z,97613.03
2023-01-09T10:05:12.382Z,97614.78
2023-01-09T10:07:51.128Z,97603.56
2023-01-09T10:10:44.337Z,97609.22
2023-01-09T10:13:38.067Z,97608.50
2023-01-09T10:16:45.648Z,97604.06
2023-01-09T10:19:55.376Z,97602.66
2023-01-09T10:23:51.246Z,97596.09
2023-01-09T10:26:58.114Z,97604.72
2023-01-09T10:30:19.901Z,97612.84
2023-01-09T10:33:10.515Z,97623.56
2023-01-09T10:36:26.613Z,97620.31
2023-01-09T10:39:01.648Z,97618.91
2023-01-09T10:41:58.977Z,97611.59
2023-01-09T10:44:45.490Z,97616.28
2023-01-09T10:47:37.524Z,97620.16
2023-01-09T10:50:39.934Z,97625.03
2023-01-09T10:53:39.692Z,97617.53
2023-01-09T10:56:36.960Z,97617.00
2023-01-09T10:59:04.451Z,97621.84
2023-01-09T11:01:40.167Z,97616.50
2023-01-09T11:04:37.624Z,97621.03
2023-01-09T11:07:26.211Z,97611.53
2023-01-09T11:10:08.212Z,97602.81
2023-01-09T11:12:37.986Z,97622.97
2023-01-09T11:15:19.548Z,97633.09
2023-01-09T11:17:50.371Z,97628.38
2023-01-09T11:20:30.072Z,97641.44
2023-01-09T11:22:59.209Z,97633.47
2023-01-09T11:25:29.082Z,97643.00
2023-01-09T11:28:06.774Z,97636.41
2023-01-09T11:31:02.261Z,97633.00
2023-01-09T11:33:37.989Z,97641.50
2023-01-09T11:36:15.663Z,97653.44
2023-01-09T11:39:00.921Z,97653.81
2023-01-09T11:41:35.790Z,97671.34
2023-01-09T11:44:05.325Z,97665.09
2023-01-09T11:46:44.006Z,97663.09
2023-01-09T11:49:31.599Z,97655.09
2023-01-09T11:52:22.175Z,97668.25
2023-01-09T11:55:05.527Z,97666.75
2023-01-09T11:57:34.579Z,97662.50
2023-01-09T12:00:35.619Z,97664.53
2023-01-09T12:03:58.587Z,97662.00
2023-01-09T12:07:30.427Z,97657.94
2023-01-09T12:11:09.306Z,97658.97
2023-01-09T12:14:13.178Z,97660.56
2023-01-09T12:17:10.565Z,97653.97
2023-01-09T12:20:55.802Z,97635.22
2023-01-09T12:24:02.403Z,97637.06
2023-01-09T12:26:50.517Z,97627.59
2023-01-09T12:29:40.719Z,97639.88
2023-01-09T12:32:47.839Z,97620.16
2023-01-09T12:35:57.658Z,97631.41
2023-01-09T12:38:46.183Z,97631.31
2023-01-09T12:41:37.244Z,97655.63
2023-01-09T12:45:13.754Z,97647.91
2023-01-09T12:47:48.788Z,97652.66
2023-01-09T12:50:38.182Z,97651.25
2023-01-09T12:53:30.826Z,97642.31
2023-01-09T12:56:20.121Z,97633.75
2023-01-09T12:59:10.177Z,97635.09
2023-01-09T13:01:46.618Z,97628.25
2023-01-09T13:04:30.835Z,97623.78
2023-01-09T13:07:20.482Z,97621.91
2023-01-09T13:10:02.331Z,97622.28
2023-01-09T13:12:39.195Z,97627.25
2023-01-09T13:15:41.355Z,97620.78
2023-01-09T13:19:11.115Z,97625.59
2023-01-09T13:21:40.225Z,97628.91
2023-01-09T13:24:35.563Z,97618.47
2023-01-09T13:27:16.439Z,97628.63
2023-01-09T13:29:51.959Z,97622.75
2023-01-09T13:32:58.404Z,97623.88
2023-01-09T13:35:26.081Z,97627.56
2023-01-09T13:37:54.395Z,97621.03
2023-01-09T13:40:21.813Z,97636.81
2023-01-09T13:43:05.393Z,97645.00
2023-01-09T13:45:38.132Z,97643.00
2023-01-09T13:48:11.959Z,97655.53
2023-01-09T13:50:41.306Z,97643.81
2023-01-09T13:53:25.048Z,97649.59
2023-01-09T13:55:58.895Z,97650.09
2023-01-09T13:59:02.552Z,97670.81
2023-01-09T14:01:39.773Z,97661.22
2023-01-09T14:04:14.870Z,97667.63
2023-01-09T14:06:44.954Z,97665.28
2023-01-09T14:09:23.495Z,97675.50
2023-01-09T14:12:06.128Z,97720.34
2023-01-09T14:14:34.949Z,97699.06
2023-01-09T14:17:03.475Z,97708.44
2023-01-09T14:19:39.888Z,97719.75
2023-01-09T14:22:23.339Z,97730.34
2023-01-09T14:24:52.958Z,97725.09
2023-01-09T14:27:54.305Z,97748.78
2023-01-09T14:30:47.076Z,97779.41
2023-01-09T14:33:20.549Z,97791.47
2023-01-09T14:36:22.098Z,97783.53
2023-01-09T14:39:04.048Z,97799.78
2023-01-09T14:42:05.651Z,97801.13
2023-01-09T14:45:19.384Z,97790.91
2023-01-09T14:48:05.553Z,97795.25
2023-01-09T14:50:55.404Z,97801.31
2023-01-09T14:53:37.058Z,97814.13
2023-01-09T14:56:08.396Z,97804.13
2023-01-09T14:58:38.721Z,97817.75
2023-01-09T15:01:22.976Z,97807.28
2023-01-09T15:04:01.773Z,97825.06
2023-01-09T15:06:41.702Z,97831.63
2023-01-09T15:09:33.615Z,97848.78
2023-01-09T15:12:09.431Z,97850.19
2023-01-09T15:14:43.268Z,97860.44
2023-01-09T15:17:33.953Z,97863.91
2023-01-09T15:20:05.439Z,97871.38
2023-01-09T15:22:37.840Z,97865.84
2023-01-09T15:25:39.358Z,97874.31
2023-01-09T15:28:33.117Z,97866.19
2023-01-09T15:31:16.719Z,97868.22
2023-01-09T15:33:47.997Z,97876.69
2023-01-09T15:36:30.305Z,97880.16
2023-01-09T15:38:58.308Z,97888.16
2023-01-09T15:41:49.204Z,97881.94
2023-01-09T15:44:30.228Z,97889.78
2023-01-09T15:47:00.230Z,97891.63
2023-01-09T15:49:27.915Z,97907.72
2023-01-09T15:51:55.956Z,97907.09
2023-01-09T15:54:32.505Z,97890.44
2023-01-09T15:57:25.945Z,97911.88
2023-01-09T15:59:56.334Z,97913.25
2023-01-09T16:02:44.272Z,97908.66
2023-01-09T16:05:17.846Z,97915.75
2023-01-09T16:07:51.799Z,97930.34
2023-01-09T16:10:35.479Z,97930.31
2023-01-09T16:13:03.555Z,97932.03
2023-01-09T16:15:34.930Z,97940.84
2023-01-09T16:18:39.060Z,97952.34
2023-01-09T16:21:12.491Z,97958.78
2023-01-09T16:23:50.464Z,97967.31
2023-01-09T16:26:25.415Z,97979.88
2023-01-09T16:28:53.811Z,97986.56
2023-01-09T16:31:29.800Z,97982.69
2023-01-09T16:34:07.207Z,97981.44
2023-01-09T16:36:36.372Z,97978.78
2023-01-09T16:39:04.644Z,97988.25
2023-01-09T16:41:50.580Z,97985.63
2023-01-09T16:44:19.323Z,97994.59
2023-01-09T16:46:46.903Z,97991.84
2023-01-09T16:49:23.361Z,98004.53
2023-01-09T16:51:51.760Z,98004.44
2023-01-09T16:54:20.237Z,98015.22
2023-01-09T16:56:52.902Z,98025.78
2023-01-09T16:59:27.777Z,98025.38
2023-01-09T17:01:55.592Z,98020.41
2023-01-09T17:04:26.106Z,98023.97
2023-01-09T17:06:53.441Z,98032.03
2023-01-09T17:09:27.646Z,98042.69
2023-01-09T17:11:55.141Z,98040.72
2023-01-09T17:14:22.452Z,98051.97
2023-01-09T17:16:49.978Z,98044.75
2023-01-09T17:19:23.563Z,98050.66
2023-01-09T17:21:50.879Z,98064.59
2023-01-09T17:24:37.154Z,98070.13
2023-01-09T17:27:23.138Z,98070.56
2023-01-09T17:29:50.510Z,98070.00
2023-01-09T17:32:19.552Z,98074.03
